Time;durP1;ratioP1;P1;durP2;ratioP2;P2;SDS_P1;SDS_P2;PMS_P1;PMS_P2;Temp;Humidity;BMP_temperature;BMP_pressure;BME280_temperature;BME280_humidity;BME280_pressure;Samples;Min_cycle;Max_cycle;Signal;HPM_P1;HPM_P2
2022/12/18 00:02:01;;;;;;;58.20;26.57;;;-3.60;99.90;;;;;;5033678;28;20199;-74
2022/12/18 00:04:27;;;;;;;49.70;26.17;;;-3.60;99.90;;;;;;5036514;28;20218;-74
2022/12/18 00:06:53;;;;;;;51.33;26.57;;;-3.60;99.90;;;;;;5032462;28;20197;-74
2022/12/18 00:09:19;;;;;;;43.67;24.37;;;-3.60;99.90;;;;;;5033780;28;20438;-74
2022/12/18 00:11:45;;;;;;;44.10;23.63;;;-3.70;99.90;;;;;;5037823;28;20445;-74
2022/12/18 00:14:12;;;;;;;51.03;26.20;;;-3.70;99.90;;;;;;5035974;28;20287;-74
2022/12/18 00:16:37;;;;;;;43.10;23.70;;;-3.70;99.90;;;;;;5036754;28;20184;-74
2022/12/18 00:19:04;;;;;;;44.67;24.53;;;-3.70;99.90;;;;;;5030282;28;20454;-74
2022/12/18 00:21:31;;;;;;;45.83;25.90;;;-3.80;99.90;;;;;;5037997;28;20176;-73
2022/12/18 00:23:58;;;;;;;51.17;27.77;;;-3.90;99.90;;;;;;5031358;28;20500;-74
2022/12/18 00:26:26;;;;;;;48.97;27.50;;;-3.90;99.90;;;;;;5036455;28;20481;-74
2022/12/18 00:28:52;;;;;;;52.67;27.80;;;-4.00;99.90;;;;;;5033208;28;20430;-75
2022/12/18 00:31:20;;;;;;;43.70;22.63;;;-4.10;99.90;;;;;;5035492;28;20679;-75
2022/12/18 00:33:47;;;;;;;44.13;24.57;;;-4.10;99.90;;;;;;5036567;28;20633;-75
2022/12/18 00:36:16;;;;;;;59.07;26.30;;;-4.20;99.90;;;;;;5032321;28;20854;-73
2022/12/18 00:38:42;;;;;;;48.17;23.43;;;-4.30;99.90;;;;;;5033862;28;20440;-74
2022/12/18 00:41:08;;;;;;;46.43;23.47;;;-4.40;99.90;;;;;;5036147;28;20794;-73
2022/12/18 00:43:35;;;;;;;54.77;26.73;;;-4.60;99.90;;;;;;5033100;28;20892;-74
2022/12/18 00:46:00;;;;;;;51.80;24.63;;;-4.50;99.90;;;;;;5034417;28;20439;-74
2022/12/18 00:48:26;;;;;;;57.27;27.30;;;-4.50;99.90;;;;;;5032744;28;20435;-74
2022/12/18 00:50:51;;;;;;;39.97;22.23;;;-4.60;99.90;;;;;;5034015;28;20184;-74
2022/12/18 00:53:17;;;;;;;43.73;22.33;;;-4.60;99.90;;;;;;5036683;28;20525;-74
2022/12/18 00:55:43;;;;;;;43.77;24.00;;;-4.60;99.90;;;;;;5032503;28;20676;-74
2022/12/18 00:58:10;;;;;;;46.40;25.97;;;-4.60;99.90;;;;;;5036549;28;20174;-74
2022/12/18 01:00:37;;;;;;;50.90;23.50;;;-4.50;99.90;;;;;;5035728;28;20438;-74
2022/12/18 01:03:03;;;;;;;62.00;28.30;;;-4.60;99.90;;;;;;5033412;28;20536;-74
2022/12/18 01:05:29;;;;;;;48.13;25.93;;;-4.50;99.90;;;;;;5031731;28;20474;-74
2022/12/18 01:07:56;;;;;;;41.67;23.90;;;-4.40;99.90;;;;;;5026667;28;20462;-74
2022/12/18 01:10:21;;;;;;;48.40;26.83;;;-4.40;99.90;;;;;;5028098;28;20174;-75
2022/12/18 01:12:47;;;;;;;50.20;26.80;;;-4.30;99.90;;;;;;5033807;28;20459;-74
2022/12/18 01:15:14;;;;;;;53.47;26.33;;;-4.40;99.90;;;;;;5034196;28;20473;-74
2022/12/18 01:17:42;;;;;;;55.30;25.43;;;-4.50;99.90;;;;;;5030944;28;20232;-73
2022/12/18 01:20:09;;;;;;;56.20;28.20;;;-4.40;99.90;;;;;;5032274;28;20453;-74
2022/12/18 01:22:36;;;;;;;43.90;25.53;;;-4.30;99.90;;;;;;5037716;28;20439;-74
2022/12/18 01:25:02;;;;;;;53.73;26.93;;;-4.30;99.90;;;;;;5027157;28;20474;-74
2022/12/18 01:27:27;;;;;;;56.70;27.27;;;-4.60;99.90;;;;;;5031558;28;20446;-74
2022/12/18 01:29:53;;;;;;;53.80;26.20;;;-4.60;99.90;;;;;;5032925;28;20532;-73
2022/12/18 01:32:18;;;;;;;49.80;27.17;;;-4.60;99.90;;;;;;5036102;28;20195;-75
2022/12/18 01:34:44;;;;;;;62.57;26.60;;;-4.70;99.90;;;;;;5036161;28;20222;-74
2022/12/18 01:37:10;;;;;;;46.87;24.80;;;-4.60;99.90;;;;;;5031571;28;20203;-74
2022/12/18 01:39:36;;;;;;;49.37;24.43;;;-4.50;99.90;;;;;;5034290;28;20212;-73
2022/12/18 01:42:11;;;;;;;54.40;25.57;;;-4.50;99.90;;;;;;5028873;28;22465;-74
2022/12/18 01:45:04;;;;;;;49.60;25.87;;;-4.50;99.90;;;;;;5030690;28;20219;-74
2022/12/18 01:48:01;;;;;;;53.70;25.77;;;-4.60;99.90;;;;;;5032489;28;20453;-74
2022/12/18 01:50:40;;;;;;;50.07;27.20;;;-4.60;99.90;;;;;;5033526;28;20429;-74
2022/12/18 01:53:16;;;;;;;45.93;22.90;;;-4.70;99.90;;;;;;5034668;28;20450;-74
2022/12/18 01:55:57;;;;;;;47.47;24.40;;;-4.50;99.90;;;;;;5036792;28;20452;-75
2022/12/18 01:58:51;;;;;;;60.07;25.93;;;-4.50;99.90;;;;;;5034237;28;20602;-75
2022/12/18 02:01:16;;;;;;;59.20;24.80;;;-4.60;99.90;;;;;;5028846;28;20450;-75
2022/12/18 02:03:44;;;;;;;44.30;25.00;;;-4.60;99.90;;;;;;5039488;28;20461;-75
2022/12/18 02:06:12;;;;;;;47.40;23.87;;;-4.60;99.90;;;;;;5032348;28;20191;-75
2022/12/18 02:08:53;;;;;;;43.30;23.07;;;-4.60;99.90;;;;;;5041241;28;20516;-75
2022/12/18 02:11:24;;;;;;;54.03;26.13;;;-4.60;99.90;;;;;;5038072;28;20494;-75
2022/12/18 02:14:08;;;;;;;51.47;27.10;;;-4.70;99.90;;;;;;5038031;28;20551;-74
2022/12/18 02:16:45;;;;;;;49.63;24.20;;;-4.60;99.90;;;;;;5036553;28;20495;-75
2022/12/18 02:19:45;;;;;;;54.53;25.57;;;-4.60;99.90;;;;;;5039606;28;21084;-74
2022/12/18 02:22:28;;;;;;;55.57;25.73;;;-4.50;99.90;;;;;;5037717;28;20827;-74
2022/12/18 02:25:17;;;;;;;50.27;24.70;;;-4.60;99.90;;;;;;5036907;28;20472;-75
2022/12/18 02:27:47;;;;;;;49.80;24.43;;;-4.60;99.90;;;;;;5042213;28;20502;-75
2022/12/18 02:30:13;;;;;;;48.63;24.87;;;-4.60;99.90;;;;;;5032346;28;20437;-75
2022/12/18 02:32:43;;;;;;;45.20;26.03;;;-4.50;99.90;;;;;;5043875;28;20411;-73
2022/12/18 02:35:16;;;;;;;58.23;26.23;;;-4.70;99.90;;;;;;5036095;28;20476;-73
2022/12/18 02:37:44;;;;;;;55.93;26.63;;;-4.60;99.90;;;;;;5041256;28;20460;-73
2022/12/18 02:40:12;;;;;;;47.37;22.80;;;-4.60;99.90;;;;;;5039379;28;22144;-75
2022/12/18 02:42:37;;;;;;;52.90;25.57;;;-4.60;99.90;;;;;;5037723;28;20437;-75
2022/12/18 02:45:03;;;;;;;55.33;27.13;;;-4.70;99.90;;;;;;5035401;28;20465;-75
2022/12/18 02:47:33;;;;;;;49.43;25.73;;;-4.70;99.90;;;;;;5038742;28;20615;-75
2022/12/18 02:50:50;;;;;;;50.23;24.70;;;-4.60;99.90;;;;;;5034985;28;20437;-74
2022/12/18 02:53:26;;;;;;;44.73;23.47;;;-4.50;99.90;;;;;;5022577;28;20458;-74
2022/12/18 02:56:18;;;;;;;47.30;23.20;;;-4.50;99.90;;;;;;5033441;28;20445;-74
2022/12/18 02:58:58;;;;;;;47.37;22.87;;;-4.60;99.90;;;;;;5036384;28;20447;-74
2022/12/18 03:01:28;;;;;;;47.77;24.40;;;-4.50;99.90;;;;;;5034456;28;20992;-73
2022/12/18 03:04:04;;;;;;;54.73;26.73;;;-4.40;99.90;;;;;;5036989;28;20530;-74
2022/12/18 03:06:39;;;;;;;53.17;25.33;;;-4.40;99.90;;;;;;5034473;28;20441;-74
2022/12/18 03:09:09;;;;;;;41.60;23.83;;;-4.30;99.90;;;;;;5036600;28;20550;-74
2022/12/18 03:14:26;;;;;;;39.57;22.00;;;-4.30;99.90;;;;;;5039229;28;20476;-74
2022/12/18 03:16:58;;;;;;;46.23;24.27;;;-4.40;99.90;;;;;;5032051;28;20440;-74
2022/12/18 03:19:28;;;;;;;47.13;22.83;;;-4.40;99.90;;;;;;5038117;28;20462;-74
2022/12/18 03:21:56;;;;;;;47.90;21.90;;;-4.50;99.90;;;;;;5037035;28;20489;-74
2022/12/18 03:24:24;;;;;;;55.40;27.77;;;-4.40;99.90;;;;;;5034183;28;20826;-74
2022/12/18 03:26:54;;;;;;;52.10;24.50;;;-4.30;99.90;;;;;;5035082;28;20618;-74
2022/12/18 03:29:26;;;;;;;53.37;25.47;;;-4.40;99.90;;;;;;5037028;28;20430;-74
2022/12/18 03:31:58;;;;;;;49.53;25.60;;;-4.40;99.90;;;;;;5032437;28;20442;-72
2022/12/18 03:34:29;;;;;;;50.50;24.33;;;-4.40;99.90;;;;;;5023692;28;20967;-73
2022/12/18 03:36:55;;;;;;;41.67;24.10;;;-4.50;99.90;;;;;;5035784;28;20456;-73
2022/12/18 03:39:21;;;;;;;47.00;22.17;;;-4.50;99.90;;;;;;5035990;28;20433;-73
2022/12/18 03:42:16;;;;;;;43.60;21.13;;;-4.50;99.90;;;;;;5033958;28;20625;-73
2022/12/18 03:44:45;;;;;;;39.50;23.10;;;-4.60;99.90;;;;;;5014562;28;20212;-74
2022/12/18 03:47:34;;;;;;;43.23;23.93;;;-4.60;99.90;;;;;;5034856;28;20799;-74
2022/12/18 03:50:20;;;;;;;41.27;25.17;;;-4.70;99.90;;;;;;5031401;28;20439;-74
2022/12/18 03:52:49;;;;;;;50.37;23.63;;;-4.60;99.90;;;;;;5035410;28;20459;-72
2022/12/18 03:55:15;;;;;;;53.40;25.83;;;-4.60;99.90;;;;;;5031559;28;20548;-73
2022/12/18 03:57:42;;;;;;;46.30;24.47;;;-4.70;99.90;;;;;;5034505;28;20453;-73
2022/12/18 04:00:13;;;;;;;48.23;23.27;;;-4.90;99.90;;;;;;5034799;28;20477;-73
2022/12/18 04:02:43;;;;;;;51.97;23.37;;;-4.80;99.90;;;;;;5035515;28;20857;-73
2022/12/18 04:05:10;;;;;;;45.93;22.90;;;-4.80;99.90;;;;;;5036388;28;20998;-73
2022/12/18 04:07:36;;;;;;;47.63;24.53;;;-4.90;99.90;;;;;;5030878;28;20440;-74
2022/12/18 04:10:06;;;;;;;43.67;23.50;;;-4.80;99.90;;;;;;5035120;28;20452;-73
2022/12/18 04:12:31;;;;;;;47.80;25.07;;;-4.80;99.90;;;;;;5038375;28;20870;-74
2022/12/18 04:14:57;;;;;;;51.27;24.70;;;-4.70;99.90;;;;;;5035481;28;20562;-74
2022/12/18 04:17:23;;;;;;;52.97;26.63;;;-4.70;99.90;;;;;;5028564;28;20221;-74
2022/12/18 04:19:49;;;;;;;60.33;25.37;;;-4.80;99.90;;;;;;5039959;28;20266;-73
2022/12/18 04:22:15;;;;;;;49.37;27.67;;;-4.70;99.90;;;;;;5036590;28;21199;-73
2022/12/18 04:24:41;;;;;;;50.43;25.87;;;-4.70;99.90;;;;;;5036625;28;20994;-73
2022/12/18 04:27:06;;;;;;;50.17;25.57;;;-4.90;99.90;;;;;;5035493;28;20573;-73
2022/12/18 04:29:32;;;;;;;53.33;24.93;;;-5.00;99.90;;;;;;5038586;28;20195;-73
2022/12/18 04:31:57;;;;;;;56.90;25.40;;;-5.10;99.90;;;;;;5037665;28;20218;-73
2022/12/18 04:34:23;;;;;;;64.87;27.70;;;-5.20;99.90;;;;;;5034755;28;20221;-74
2022/12/18 04:36:48;;;;;;;57.07;26.40;;;-5.20;99.90;;;;;;5033219;28;20221;-73
2022/12/18 04:39:17;;;;;;;66.20;27.70;;;-5.20;99.90;;;;;;5034323;28;20218;-73
2022/12/18 04:41:43;;;;;;;64.90;26.43;;;-5.10;99.90;;;;;;5035161;28;20564;-73
2022/12/18 04:44:09;;;;;;;64.53;28.50;;;-5.10;99.90;;;;;;5032135;28;20487;-72
2022/12/18 04:46:34;;;;;;;66.07;28.57;;;-5.10;99.90;;;;;;5033229;28;20511;-72
2022/12/18 04:49:00;;;;;;;59.77;25.70;;;-5.20;99.90;;;;;;5033839;28;20591;-73
2022/12/18 04:51:25;;;;;;;56.67;26.83;;;-5.10;99.90;;;;;;5034066;28;20975;-74
2022/12/18 04:53:51;;;;;;;67.90;27.40;;;-5.10;99.90;;;;;;5035962;28;20205;-74
2022/12/18 04:56:17;;;;;;;53.33;26.87;;;-5.30;99.90;;;;;;5036069;28;20198;-72
2022/12/18 04:58:43;;;;;;;71.87;26.63;;;-5.50;99.90;;;;;;5034842;28;20560;-72
2022/12/18 05:01:10;;;;;;;58.37;27.50;;;-5.30;99.90;;;;;;5032793;28;20209;-73
2022/12/18 05:03:36;;;;;;;68.30;26.10;;;-5.20;99.90;;;;;;5037634;28;20574;-74
2022/12/18 05:06:03;;;;;;;70.43;28.10;;;-5.20;99.90;;;;;;5034080;28;21054;-74
2022/12/18 05:08:28;;;;;;;51.50;25.87;;;-5.20;99.90;;;;;;5034942;28;20517;-74
2022/12/18 05:11:01;;;;;;;57.63;27.00;;;-5.20;99.90;;;;;;5016206;28;20533;-73
2022/12/18 05:13:28;;;;;;;51.00;25.97;;;-5.20;99.90;;;;;;5032375;28;20191;-73
2022/12/18 05:15:54;;;;;;;79.77;27.00;;;-5.30;99.90;;;;;;5030646;28;20447;-73
2022/12/18 05:18:21;;;;;;;56.13;25.60;;;-5.10;99.90;;;;;;5033043;28;20442;-74
2022/12/18 05:20:47;;;;;;;68.70;27.80;;;-5.00;99.90;;;;;;5032969;28;20522;-74
2022/12/18 05:23:12;;;;;;;65.17;25.30;;;-4.90;99.90;;;;;;5032463;28;20471;-73
2022/12/18 05:25:38;;;;;;;70.17;24.50;;;-4.80;99.90;;;;;;5033700;28;20990;-73
2022/12/18 05:28:04;;;;;;;74.97;28.87;;;-4.80;99.90;;;;;;5032391;28;20187;-73
2022/12/18 05:30:29;;;;;;;68.50;29.67;;;-4.80;99.90;;;;;;5031648;28;20641;-73
2022/12/18 05:32:55;;;;;;;57.90;25.07;;;-4.90;99.90;;;;;;5034382;28;20173;-73
2022/12/18 05:35:20;;;;;;;50.77;23.30;;;-4.80;99.90;;;;;;5038165;28;21005;-73
2022/12/18 05:37:46;;;;;;;60.57;27.87;;;-4.70;99.90;;;;;;5038876;28;20674;-73
2022/12/18 05:40:12;;;;;;;58.70;24.47;;;-4.80;99.90;;;;;;5036876;28;20461;-73
2022/12/18 05:42:38;;;;;;;71.03;28.10;;;-4.80;99.90;;;;;;5038268;28;20265;-73
2022/12/18 05:45:04;;;;;;;54.37;27.63;;;-4.80;99.90;;;;;;5040050;28;20466;-75
2022/12/18 05:47:30;;;;;;;58.80;26.83;;;-4.70;99.90;;;;;;5037526;28;20440;-74
2022/12/18 05:49:55;;;;;;;57.80;26.37;;;-4.60;99.90;;;;;;5040165;28;20429;-74
2022/12/18 05:52:21;;;;;;;58.37;24.60;;;-4.50;99.90;;;;;;5035025;28;20180;-73
2022/12/18 05:54:47;;;;;;;58.53;26.33;;;-4.40;99.90;;;;;;5037490;28;20202;-73
2022/12/18 05:57:12;;;;;;;70.47;27.83;;;-4.30;99.90;;;;;;5034052;28;20881;-73
2022/12/18 05:59:38;;;;;;;63.73;27.70;;;-4.30;99.90;;;;;;5040152;28;20659;-73
2022/12/18 06:02:03;;;;;;;58.43;24.90;;;-4.30;99.90;;;;;;5035596;28;20199;-73
2022/12/18 06:04:29;;;;;;;62.40;27.63;;;-4.40;99.90;;;;;;5036352;28;20316;-74
2022/12/18 06:06:54;;;;;;;56.70;23.60;;;-4.30;99.90;;;;;;5040323;28;20184;-74
2022/12/18 06:09:20;;;;;;;54.50;25.00;;;-4.20;99.90;;;;;;5035684;28;20187;-74
2022/12/18 06:11:45;;;;;;;59.40;25.07;;;-4.30;99.90;;;;;;5041015;28;20336;-74
2022/12/18 06:14:11;;;;;;;49.70;23.97;;;-4.30;99.90;;;;;;5039239;28;20262;-74
2022/12/18 06:16:37;;;;;;;52.47;25.30;;;-4.40;99.90;;;;;;5037745;28;20190;-74
2022/12/18 06:19:05;;;;;;;58.60;25.33;;;-4.30;99.90;;;;;;5035053;28;20217;-74
2022/12/18 06:21:31;;;;;;;53.97;24.40;;;-4.20;99.90;;;;;;5038272;28;20187;-75
2022/12/18 06:23:58;;;;;;;49.27;24.47;;;-4.30;99.90;;;;;;5039809;28;20455;-73
2022/12/18 06:26:23;;;;;;;56.93;25.03;;;-4.20;99.90;;;;;;5038275;28;20458;-75
2022/12/18 06:28:49;;;;;;;60.43;25.03;;;-4.40;99.90;;;;;;5038521;28;20895;-73
2022/12/18 06:31:15;;;;;;;53.83;24.57;;;-4.30;99.90;;;;;;5038757;28;20198;-74
2022/12/18 06:33:41;;;;;;;62.87;27.23;;;-4.10;99.90;;;;;;5039549;28;20732;-74
2022/12/18 06:36:09;;;;;;;49.27;24.00;;;-4.00;99.90;;;;;;5036514;28;20483;-74
2022/12/18 06:38:37;;;;;;;59.13;25.10;;;-4.20;99.90;;;;;;5034546;28;20438;-73
2022/12/18 06:41:11;;;;;;;65.00;26.47;;;-4.20;99.90;;;;;;5035019;28;20499;-75
2022/12/18 06:43:36;;;;;;;58.00;28.27;;;-4.10;99.90;;;;;;5035002;28;20545;-74
2022/12/18 06:46:03;;;;;;;57.47;24.67;;;-4.20;99.90;;;;;;5035374;28;20473;-74
2022/12/18 06:48:30;;;;;;;47.70;22.50;;;-4.30;99.90;;;;;;5035197;28;20904;-74
2022/12/18 06:50:55;;;;;;;66.20;25.00;;;-4.30;99.90;;;;;;5034962;28;20426;-75
2022/12/18 06:53:21;;;;;;;43.80;23.10;;;-4.20;99.90;;;;;;5035198;28;20534;-75
2022/12/18 06:55:46;;;;;;;60.50;23.97;;;-4.20;99.90;;;;;;5037118;28;20187;-74
2022/12/18 06:58:12;;;;;;;49.43;24.37;;;-4.10;99.90;;;;;;5034884;28;20186;-75
2022/12/18 07:00:37;;;;;;;49.07;23.77;;;-4.20;99.90;;;;;;5035909;28;20257;-74
2022/12/18 07:03:03;;;;;;;60.17;25.17;;;-4.00;99.90;;;;;;5036563;28;20199;-74
2022/12/18 07:05:29;;;;;;;48.57;22.43;;;-3.90;99.90;;;;;;5037611;28;20268;-74
2022/12/18 07:07:54;;;;;;;53.60;24.80;;;-4.10;99.90;;;;;;5037599;28;20276;-74
2022/12/18 07:10:20;;;;;;;57.10;25.53;;;-4.30;99.90;;;;;;5035015;28;20183;-74
2022/12/18 07:12:46;;;;;;;57.80;22.73;;;-4.20;99.90;;;;;;5036378;28;20191;-74
2022/12/18 07:15:11;;;;;;;57.77;25.80;;;-4.10;99.90;;;;;;5034781;28;20207;-74
2022/12/18 07:17:37;;;;;;;53.73;25.87;;;-4.10;99.90;;;;;;5034999;28;20433;-74
2022/12/18 07:20:03;;;;;;;57.07;25.23;;;-3.90;99.90;;;;;;5036577;28;20221;-73
2022/12/18 07:22:28;;;;;;;53.63;23.93;;;-3.80;99.90;;;;;;5037531;28;21335;-74
2022/12/18 07:24:55;;;;;;;44.60;22.60;;;-3.80;99.90;;;;;;5036040;28;20223;-74
2022/12/18 07:27:20;;;;;;;61.90;27.53;;;-3.90;99.90;;;;;;5036091;28;20570;-74
2022/12/18 07:29:46;;;;;;;52.10;23.60;;;-4.10;99.90;;;;;;5038099;28;20465;-73
2022/12/18 07:32:11;;;;;;;58.33;24.17;;;-4.10;99.90;;;;;;5037394;28;20607;-73
2022/12/18 07:34:37;;;;;;;54.87;23.03;;;-4.00;99.90;;;;;;5039619;28;20219;-73
2022/12/18 07:37:02;;;;;;;52.10;25.10;;;-3.90;99.90;;;;;;5035621;28;20237;-73
2022/12/18 07:39:28;;;;;;;50.93;23.10;;;-4.00;99.90;;;;;;5034826;28;20198;-73
2022/12/18 07:44:37;;;;;;;59.50;25.10;;;-4.10;99.90;;;;;;5035650;28;20238;-75
2022/12/18 07:47:03;;;;;;;55.20;25.23;;;-3.90;99.90;;;;;;5035356;28;21259;-74
2022/12/18 07:49:29;;;;;;;46.60;22.53;;;-3.90;99.90;;;;;;5036375;28;20703;-74
2022/12/18 07:51:55;;;;;;;48.27;23.13;;;-3.80;99.90;;;;;;5034351;28;20241;-73
2022/12/18 07:54:22;;;;;;;56.83;23.50;;;-3.80;99.90;;;;;;5035452;28;20227;-74
2022/12/18 07:56:47;;;;;;;56.97;22.70;;;-3.80;99.90;;;;;;5036706;28;20881;-73
2022/12/18 07:59:13;;;;;;;54.47;21.97;;;-3.80;99.90;;;;;;5032748;28;20493;-72
2022/12/18 08:01:38;;;;;;;60.67;25.27;;;-3.70;99.90;;;;;;5037970;28;20214;-73
2022/12/18 08:04:04;;;;;;;58.13;23.97;;;-3.60;99.90;;;;;;5037741;28;20218;-72
2022/12/18 08:06:29;;;;;;;57.87;23.53;;;-3.60;99.90;;;;;;5037289;28;20195;-73
2022/12/18 08:08:56;;;;;;;58.43;26.50;;;-3.60;99.90;;;;;;5033487;28;20236;-74
2022/12/18 08:11:23;;;;;;;51.83;21.70;;;-3.50;99.90;;;;;;5036078;28;20183;-73
2022/12/18 08:13:49;;;;;;;61.70;22.90;;;-3.50;99.90;;;;;;5036973;28;20473;-74
2022/12/18 08:16:15;;;;;;;53.17;23.80;;;-3.50;99.90;;;;;;5036346;28;20479;-74
2022/12/18 08:18:40;;;;;;;48.83;24.93;;;-3.40;99.90;;;;;;5035193;28;20192;-76
2022/12/18 08:21:22;;;;;;;56.40;25.27;;;-3.50;99.90;;;;;;5036255;28;20774;-74
2022/12/18 08:23:48;;;;;;;54.43;23.67;;;-3.40;99.90;;;;;;5039185;28;20621;-75
2022/12/18 08:26:14;;;;;;;53.67;23.50;;;-3.50;99.90;;;;;;5035295;28;20430;-75
2022/12/18 08:28:40;;;;;;;45.87;24.87;;;-3.40;99.90;;;;;;5036317;28;20951;-75
2022/12/18 08:31:07;;;;;;;52.27;23.87;;;-3.30;99.90;;;;;;5036108;28;20192;-75
2022/12/18 08:33:32;;;;;;;52.57;24.60;;;-3.20;99.90;;;;;;5036979;28;20499;-74
2022/12/18 08:35:59;;;;;;;59.20;24.90;;;-3.20;99.90;;;;;;5034024;28;20439;-74
2022/12/18 08:38:25;;;;;;;60.80;27.40;;;-3.20;99.90;;;;;;5035209;28;20203;-74
2022/12/18 08:40:59;;;;;;;54.43;26.60;;;-3.10;99.90;;;;;;5036063;28;20488;-75
2022/12/18 08:46:09;;;;;;;58.40;25.10;;;-3.10;99.90;;;;;;5032666;28;20554;-75
2022/12/18 08:48:34;;;;;;;54.87;24.50;;;-3.00;99.90;;;;;;5030070;28;20474;-75
2022/12/18 08:51:00;;;;;;;53.03;23.93;;;-3.00;99.90;;;;;;5027751;28;21769;-73
2022/12/18 08:53:26;;;;;;;63.20;25.20;;;-3.00;99.90;;;;;;5029173;28;20194;-74
2022/12/18 08:55:53;;;;;;;54.50;23.67;;;-3.00;99.90;;;;;;5033095;28;20191;-73
2022/12/18 08:58:19;;;;;;;51.20;21.83;;;-3.20;99.90;;;;;;5029453;28;20450;-73
2022/12/18 09:00:45;;;;;;;64.00;28.40;;;-3.10;99.90;;;;;;5032450;28;20445;-74
2022/12/18 09:03:12;;;;;;;58.20;25.70;;;-3.00;99.90;;;;;;5013282;28;20624;-72
2022/12/18 09:05:38;;;;;;;51.70;24.97;;;-3.10;99.90;;;;;;5031467;28;20972;-73
2022/12/18 09:08:03;;;;;;;60.43;29.47;;;-3.10;99.90;;;;;;5034989;28;20438;-73
2022/12/18 09:10:29;;;;;;;63.90;28.20;;;-3.00;99.90;;;;;;5037535;28;20208;-73
2022/12/18 09:12:55;;;;;;;56.77;26.03;;;-2.90;99.90;;;;;;5034906;28;20252;-73
2022/12/18 09:15:21;;;;;;;59.40;25.77;;;-2.90;99.90;;;;;;5035561;28;20202;-73
2022/12/18 09:17:47;;;;;;;68.17;28.30;;;-2.80;99.90;;;;;;5035622;28;20457;-74
2022/12/18 09:20:13;;;;;;;55.17;29.50;;;-2.70;99.90;;;;;;5033438;28;20488;-74
2022/12/18 09:22:39;;;;;;;52.43;24.07;;;-2.60;99.90;;;;;;5036903;28;20529;-74
2022/12/18 09:25:07;;;;;;;50.20;24.47;;;-2.70;99.90;;;;;;5033851;28;20637;-73
2022/12/18 09:27:33;;;;;;;54.00;24.17;;;-2.80;99.90;;;;;;5034078;28;20186;-75
2022/12/18 09:29:59;;;;;;;47.03;23.47;;;-2.80;99.90;;;;;;5031975;28;20759;-74
2022/12/18 09:32:25;;;;;;;51.90;24.30;;;-2.90;99.90;;;;;;5034645;28;20448;-74
2022/12/18 09:34:50;;;;;;;47.87;24.87;;;-2.70;99.90;;;;;;5037064;28;20227;-74
2022/12/18 09:37:16;;;;;;;49.20;24.73;;;-2.60;99.90;;;;;;5034265;28;20180;-74
2022/12/18 09:39:41;;;;;;;49.20;23.77;;;-2.50;99.90;;;;;;5039274;28;20653;-73
2022/12/18 09:42:20;;;;;;;55.37;25.97;;;-2.50;99.90;;;;;;5031952;28;20197;-73
2022/12/18 09:44:50;;;;;;;55.43;24.40;;;-2.40;99.90;;;;;;5038391;28;20648;-73
2022/12/18 09:47:18;;;;;;;53.00;24.80;;;-2.30;99.90;;;;;;5034333;28;20457;-73
2022/12/18 09:49:50;;;;;;;55.60;24.60;;;-2.20;99.90;;;;;;5039113;28;20959;-73
2022/12/18 09:52:25;;;;;;;55.97;26.20;;;-2.10;99.90;;;;;;5028653;28;20447;-73
2022/12/18 09:55:00;;;;;;;49.47;24.70;;;-2.00;99.90;;;;;;5034356;28;20517;-74
2022/12/18 09:57:26;;;;;;;53.40;27.03;;;-1.90;99.90;;;;;;5036292;28;20437;-74
2022/12/18 10:00:14;;;;;;;51.37;25.93;;;-1.90;99.90;;;;;;5034507;28;20449;-73
2022/12/18 10:02:39;;;;;;;53.47;25.97;;;-2.10;99.90;;;;;;5037793;28;20204;-73
2022/12/18 10:05:25;;;;;;;59.13;27.23;;;-2.30;99.90;;;;;;5040564;28;20892;-73
2022/12/18 10:07:59;;;;;;;63.90;26.80;;;-2.20;99.90;;;;;;5038041;28;20176;-74
2022/12/18 10:10:56;;;;;;;58.47;26.73;;;-2.10;99.90;;;;;;5039611;28;20429;-74
2022/12/18 10:13:48;;;;;;;47.50;22.70;;;-2.10;99.90;;;;;;5032147;28;21002;-74
2022/12/18 10:16:17;;;;;;;48.80;23.70;;;-2.20;99.90;;;;;;5035765;28;20900;-75
2022/12/18 10:18:54;;;;;;;58.53;26.80;;;-2.40;99.90;;;;;;5030580;28;20810;-74
2022/12/18 10:21:41;;;;;;;52.30;26.43;;;-2.40;99.90;;;;;;5030407;28;20438;-72
2022/12/18 10:24:29;;;;;;;67.60;26.63;;;-2.40;99.90;;;;;;5033974;28;20458;-73
2022/12/18 10:27:08;;;;;;;49.90;23.23;;;-2.40;99.90;;;;;;5034197;28;20453;-72
2022/12/18 10:29:34;;;;;;;52.07;25.80;;;-2.30;99.90;;;;;;5031381;28;20430;-72
2022/12/18 10:31:59;;;;;;;57.40;24.23;;;-2.10;99.90;;;;;;5035124;28;20439;-73
2022/12/18 10:34:25;;;;;;;60.10;27.27;;;-2.20;99.90;;;;;;5035024;28;20238;-72
2022/12/18 10:36:51;;;;;;;58.13;26.07;;;-2.10;99.90;;;;;;5034507;28;20302;-72
2022/12/18 10:39:23;;;;;;;50.10;23.63;;;-1.90;99.90;;;;;;5037698;28;20188;-72
2022/12/18 10:41:49;;;;;;;52.57;27.03;;;-2.00;99.90;;;;;;5033445;28;20187;-73
2022/12/18 10:44:20;;;;;;;50.13;26.50;;;-2.20;99.90;;;;;;5032110;28;20511;-71
2022/12/18 10:46:48;;;;;;;57.30;26.63;;;-2.30;99.90;;;;;;5029539;28;20179;-72
2022/12/18 10:49:34;;;;;;;58.40;25.67;;;-2.00;99.90;;;;;;5030711;28;20435;-72
2022/12/18 10:52:22;;;;;;;56.17;27.70;;;-2.10;99.90;;;;;;5029312;28;20434;-72
2022/12/18 10:54:58;;;;;;;67.40;27.50;;;-2.20;99.90;;;;;;5033004;28;20854;-72
2022/12/18 10:57:31;;;;;;;55.70;24.50;;;-2.10;99.90;;;;;;5018563;28;20453;-74
2022/12/18 10:59:59;;;;;;;63.27;30.23;;;-2.10;99.90;;;;;;5033732;28;20461;-73
2022/12/18 11:02:33;;;;;;;58.27;29.33;;;-2.20;99.90;;;;;;5031873;28;20454;-73
2022/12/18 11:05:00;;;;;;;51.03;27.27;;;-2.20;99.90;;;;;;5037059;28;20480;-73
2022/12/18 11:07:25;;;;;;;62.73;27.63;;;-2.10;99.90;;;;;;5034407;28;20592;-73
2022/12/18 11:10:01;;;;;;;59.07;26.47;;;-1.90;99.90;;;;;;5035885;28;20461;-73
2022/12/18 11:12:28;;;;;;;60.97;27.03;;;-1.80;99.90;;;;;;5030739;28;20187;-74
2022/12/18 11:14:56;;;;;;;65.00;26.97;;;-1.80;99.90;;;;;;5034336;28;20950;-75
2022/12/18 11:17:25;;;;;;;54.10;26.23;;;-2.00;99.90;;;;;;5036286;28;20442;-75
2022/12/18 11:19:55;;;;;;;50.43;25.10;;;-2.00;99.90;;;;;;5035051;28;20915;-74
2022/12/18 11:22:27;;;;;;;61.97;27.10;;;-2.00;99.90;;;;;;5038956;28;21177;-75
2022/12/18 11:25:11;;;;;;;57.00;26.43;;;-1.90;99.90;;;;;;5034499;28;20975;-74
2022/12/18 11:27:38;;;;;;;57.23;27.30;;;-1.80;99.90;;;;;;5030859;28;20486;-74
2022/12/18 11:30:20;;;;;;;58.77;25.27;;;-1.80;99.90;;;;;;5032353;28;20525;-74
2022/12/18 11:32:52;;;;;;;62.47;28.20;;;-1.80;99.90;;;;;;5033633;28;20430;-73
2022/12/18 11:35:34;;;;;;;52.50;24.93;;;-1.70;99.90;;;;;;5029850;28;21049;-75
2022/12/18 11:38:10;;;;;;;54.53;24.53;;;-1.80;99.90;;;;;;5034167;28;20475;-75
2022/12/18 11:40:37;;;;;;;61.37;27.00;;;-1.70;99.90;;;;;;5037044;28;21059;-79
2022/12/18 11:43:20;;;;;;;59.10;27.57;;;-1.50;99.90;;;;;;5032368;28;20435;-75
2022/12/18 11:46:25;;;;;;;56.60;26.00;;;-1.40;99.90;;;;;;5035904;28;20468;-77
2022/12/18 11:49:06;;;;;;;68.37;27.13;;;-1.40;99.90;;;;;;5001749;28;20433;-77
2022/12/18 11:51:43;;;;;;;63.07;28.87;;;-1.30;99.90;;;;;;5034366;28;20433;-76
2022/12/18 11:54:16;;;;;;;58.03;26.93;;;-1.30;99.90;;;;;;5035314;28;20434;-76
2022/12/18 11:57:00;;;;;;;56.50;25.60;;;-1.40;99.90;;;;;;5032313;28;20440;-76
2022/12/18 11:59:44;;;;;;;70.77;30.47;;;-1.30;99.90;;;;;;5019624;28;20434;-78
2022/12/18 12:02:37;;;;;;;60.93;26.40;;;-1.30;99.90;;;;;;5035594;28;20438;-77
2022/12/18 12:05:17;;;;;;;56.50;27.63;;;-1.20;99.90;;;;;;5034283;28;20482;-77
2022/12/18 12:08:00;;;;;;;56.67;28.60;;;-1.10;99.90;;;;;;5033781;28;20778;-74
2022/12/18 12:10:54;;;;;;;66.33;30.07;;;-1.00;99.90;;;;;;5033019;28;20472;-72
2022/12/18 12:13:30;;;;;;;73.80;29.17;;;-1.00;99.90;;;;;;5001604;28;21059;-73
2022/12/18 12:16:06;;;;;;;64.70;31.67;;;-0.90;99.90;;;;;;5033521;28;20535;-74
2022/12/18 12:18:40;;;;;;;60.63;29.70;;;-0.80;99.90;;;;;;5031879;28;21097;-76
2022/12/18 12:21:06;;;;;;;59.00;27.50;;;-0.60;99.90;;;;;;5032838;28;20589;-73
2022/12/18 12:23:50;;;;;;;53.90;28.60;;;-0.50;99.90;;;;;;5032960;28;20925;-75
2022/12/18 12:26:43;;;;;;;58.03;26.17;;;-0.40;99.90;;;;;;5030726;28;20219;-74
2022/12/18 12:29:43;;;;;;;70.17;31.00;;;-0.30;99.90;;;;;;5033443;28;20987;-75
2022/12/18 12:32:27;;;;;;;64.40;27.93;;;-0.20;99.90;;;;;;5031869;28;20820;-75
2022/12/18 12:35:20;;;;;;;53.03;28.57;;;-0.10;99.90;;;;;;5025750;28;20464;-75
2022/12/18 12:38:11;;;;;;;61.27;27.37;;;0.00;99.90;;;;;;5025031;28;20448;-76
2022/12/18 12:40:58;;;;;;;56.80;26.93;;;0.10;99.90;;;;;;5030864;28;20444;-74
2022/12/18 12:43:41;;;;;;;56.73;27.00;;;0.10;99.90;;;;;;5026831;28;20498;-73
2022/12/18 12:46:09;;;;;;;52.57;29.07;;;0.10;99.90;;;;;;5030009;28;20475;-74
2022/12/18 12:48:41;;;;;;;60.70;27.70;;;0.20;99.90;;;;;;5028958;28;20520;-76
2022/12/18 12:51:12;;;;;;;55.77;26.47;;;0.40;99.90;;;;;;5030568;28;20440;-73
2022/12/18 12:53:41;;;;;;;57.30;27.80;;;0.50;99.90;;;;;;5030802;28;20471;-74